Time;durP1;ratioP1;P1;durP2;ratioP2;P2;SDS_P1;SDS_P2;PMS_P1;PMS_P2;Temp;Humidity;BMP_temperature;BMP_pressure;BME280_temperature;BME280_humidity;BME280_pressure;Samples;Min_cycle;Max_cycle;Signal;HPM_P1;HPM_P2
2023/04/05 00:01:50;;;;;;;30.50;9.47;;;-5.10;99.90;;;;;;4455072;28;657725;-76
2023/04/05 00:04:37;;;;;;;25.23;9.07;;;-5.10;99.90;;;;;;4434539;28;658359;-76
2023/04/05 00:07:25;;;;;;;32.47;8.38;;;-5.20;99.90;;;;;;4457817;28;658770;-76
2023/04/05 00:10:12;;;;;;;31.27;8.37;;;-5.20;99.90;;;;;;4431746;28;657847;-76
2023/04/05 00:13:01;;;;;;;28.80;9.70;;;-5.20;99.90;;;;;;4440180;28;657851;-76
2023/04/05 00:15:48;;;;;;;35.33;9.63;;;-5.30;99.90;;;;;;4424330;28;658924;-76
2023/04/05 00:18:37;;;;;;;25.97;9.10;;;-5.30;99.90;;;;;;4430772;28;657686;-76
2023/04/05 00:21:24;;;;;;;30.15;9.40;;;-5.30;99.90;;;;;;4437363;28;657168;-76
2023/04/05 00:24:14;;;;;;;30.03;9.27;;;-5.30;99.90;;;;;;4428308;28;657705;-76
2023/04/05 00:27:01;;;;;;;30.10;9.52;;;-5.30;99.90;;;;;;4420140;28;658049;-76
2023/04/05 00:29:50;;;;;;;27.30;9.50;;;-5.40;99.90;;;;;;4450535;28;658322;-76
2023/04/05 00:32:37;;;;;;;29.07;9.83;;;-5.40;99.90;;;;;;4425855;28;658925;-76
2023/04/05 00:35:26;;;;;;;32.33;10.20;;;-5.40;99.90;;;;;;4447077;28;657578;-77
2023/04/05 00:38:14;;;;;;;35.10;9.67;;;-5.40;99.90;;;;;;4431372;28;659181;-76
2023/04/05 00:41:01;;;;;;;40.10;10.83;;;-5.40;99.90;;;;;;4429155;28;657931;-75
2023/04/05 00:43:48;;;;;;;39.87;11.47;;;-5.50;99.90;;;;;;4443923;28;659155;-76
2023/04/05 00:46:37;;;;;;;34.92;10.70;;;-5.50;99.90;;;;;;4434662;28;658493;-74
2023/04/05 00:49:24;;;;;;;39.10;11.53;;;-5.50;99.90;;;;;;4454472;28;659357;-76
2023/04/05 00:52:11;;;;;;;41.00;11.67;;;-5.50;99.90;;;;;;4430037;28;659131;-75
2023/04/05 00:54:59;;;;;;;46.73;12.13;;;-5.50;99.90;;;;;;4453980;28;659385;-75
2023/04/05 00:57:48;;;;;;;43.63;12.52;;;-5.50;99.90;;;;;;4431747;28;659541;-74
2023/04/05 01:00:37;;;;;;;34.43;11.47;;;-5.50;99.90;;;;;;4436088;28;658868;-73
2023/04/05 01:03:26;;;;;;;44.47;12.40;;;-5.50;99.90;;;;;;4448095;28;659039;-75
2023/04/05 01:06:22;;;;;;;38.25;11.20;;;-5.50;99.90;;;;;;4424964;28;659914;-76
2023/04/05 01:09:14;;;;;;;37.07;10.70;;;-5.50;99.90;;;;;;4425950;28;658768;-75
2023/04/05 01:12:05;;;;;;;33.10;11.07;;;-5.50;99.90;;;;;;4413735;28;658685;-75
2023/04/05 01:14:54;;;;;;;38.15;11.57;;;-5.50;99.90;;;;;;4432543;28;659054;-73
2023/04/05 01:17:43;;;;;;;35.37;10.47;;;-5.50;99.90;;;;;;4431943;28;659064;-76
2023/04/05 01:20:34;;;;;;;37.27;10.37;;;-5.50;99.90;;;;;;4438049;28;658854;-74
2023/04/05 01:23:43;;;;;;;36.33;11.30;;;-5.50;99.90;;;;;;4428565;28;658693;-75
2023/04/05 01:27:02;;;;;;;35.30;11.50;;;-5.50;99.90;;;;;;4395418;28;658620;-73
2023/04/05 01:29:57;;;;;;;37.47;11.90;;;-5.50;99.90;;;;;;4362009;28;659080;-73
2023/04/05 01:32:55;;;;;;;42.40;11.07;;;-5.60;99.90;;;;;;4453819;28;658723;-74
2023/04/05 01:35:46;;;;;;;33.67;11.40;;;-5.50;99.90;;;;;;4413182;28;659345;-75
2023/04/05 01:38:33;;;;;;;32.87;10.97;;;-5.50;99.90;;;;;;4428184;28;659081;-75
2023/04/05 01:41:21;;;;;;;26.67;10.70;;;-5.50;99.90;;;;;;4433203;28;658395;-74
2023/04/05 01:44:08;;;;;;;36.93;11.60;;;-5.50;99.90;;;;;;4453805;27;659829;-75
2023/04/05 01:46:57;;;;;;;25.30;9.97;;;-5.40;99.90;;;;;;4437248;28;658712;-74
2023/04/05 01:49:44;;;;;;;29.67;9.80;;;-5.40;99.90;;;;;;4452900;28;657537;-75
2023/04/05 01:52:31;;;;;;;40.72;10.63;;;-5.40;99.90;;;;;;4442100;28;657691;-76
2023/04/05 01:55:18;;;;;;;27.23;10.00;;;-5.40;99.90;;;;;;4448212;28;658901;-76
2023/04/05 01:58:06;;;;;;;28.20;9.70;;;-5.40;99.90;;;;;;4438038;28;658496;-75
2023/04/05 02:00:54;;;;;;;29.20;10.07;;;-5.40;99.90;;;;;;4452841;28;659120;-73
2023/04/05 02:03:43;;;;;;;26.97;9.37;;;-5.40;99.90;;;;;;4434909;28;658634;-76
2023/04/05 02:06:30;;;;;;;21.37;8.43;;;-5.50;99.90;;;;;;4435755;28;658425;-73
2023/04/05 02:09:18;;;;;;;27.80;9.30;;;-5.50;99.90;;;;;;4446425;28;658812;-76
2023/04/05 02:12:05;;;;;;;27.92;9.30;;;-5.50;99.90;;;;;;4442847;28;657467;-74
2023/04/05 02:14:52;;;;;;;23.83;8.93;;;-5.50;99.90;;;;;;4466903;28;657765;-76
2023/04/05 02:17:44;;;;;;;28.63;9.13;;;-5.50;99.90;;;;;;4451772;28;657830;-73
2023/04/05 02:20:33;;;;;;;20.87;8.23;;;-5.50;99.90;;;;;;4439082;28;658363;-75
2023/04/05 02:23:20;;;;;;;21.00;8.38;;;-5.50;99.90;;;;;;4440978;28;657434;-73
2023/04/05 02:26:08;;;;;;;23.30;8.30;;;-5.60;99.90;;;;;;4454640;28;658244;-76
2023/04/05 02:28:55;;;;;;;26.17;8.90;;;-5.50;99.90;;;;;;4444134;28;658103;-73
2023/04/05 02:31:43;;;;;;;18.67;8.00;;;-5.50;99.90;;;;;;4460490;28;657480;-73
2023/04/05 02:34:30;;;;;;;21.87;7.63;;;-5.60;99.90;;;;;;4439363;28;657188;-73
2023/04/05 02:37:19;;;;;;;22.37;8.00;;;-5.60;99.90;;;;;;4447840;27;658133;-75
2023/04/05 02:40:08;;;;;;;19.83;8.07;;;-5.60;99.90;;;;;;4438832;28;658070;-73
2023/04/05 02:42:55;;;;;;;20.30;7.90;;;-5.50;99.90;;;;;;4430769;28;657688;-75
2023/04/05 02:45:42;;;;;;;21.87;8.23;;;-5.50;99.90;;;;;;4445583;28;658171;-74
2023/04/05 02:48:30;;;;;;;23.67;7.50;;;-5.50;99.90;;;;;;4438542;28;658212;-72
2023/04/05 02:51:17;;;;;;;18.07;7.07;;;-5.50;99.90;;;;;;4455032;28;657444;-75
2023/04/05 02:54:06;;;;;;;18.30;7.03;;;-5.40;99.90;;;;;;4458974;28;657433;-75
2023/04/05 02:56:56;;;;;;;18.95;7.60;;;-5.40;99.90;;;;;;4437162;28;658127;-75
2023/04/05 02:59:44;;;;;;;17.03;7.07;;;-5.30;99.90;;;;;;4427218;28;657667;-75
2023/04/05 03:02:31;;;;;;;16.20;7.23;;;-5.20;99.90;;;;;;4428088;28;657670;-75
2023/04/05 03:05:19;;;;;;;24.87;8.10;;;-5.30;99.90;;;;;;4456519;28;657425;-75
2023/04/05 03:08:06;;;;;;;23.77;7.00;;;-5.30;99.90;;;;;;4431680;28;657603;-75
2023/04/05 03:10:55;;;;;;;18.40;6.60;;;-5.30;99.90;;;;;;4452467;28;658174;-74
2023/04/05 03:13:42;;;;;;;18.70;7.10;;;-5.30;99.90;;;;;;4421389;28;658140;-75
2023/04/05 03:16:29;;;;;;;23.40;6.23;;;-5.30;99.90;;;;;;4446543;28;658006;-75
2023/04/05 03:19:17;;;;;;;17.13;7.27;;;-5.40;99.90;;;;;;4429861;28;658172;-75
2023/04/05 03:22:04;;;;;;;19.80;7.07;;;-5.40;99.90;;;;;;4457045;28;658187;-75
2023/04/05 03:24:52;;;;;;;17.17;6.90;;;-5.40;99.90;;;;;;4433728;28;657673;-75
2023/04/05 03:27:41;;;;;;;17.83;6.87;;;-5.40;99.90;;;;;;4456348;28;657720;-73
2023/04/05 03:30:28;;;;;;;21.13;7.40;;;-5.40;99.90;;;;;;4421593;28;658442;-75
2023/04/05 03:33:15;;;;;;;20.67;7.43;;;-5.50;99.90;;;;;;4431316;28;658388;-74
2023/04/05 03:36:04;;;;;;;28.00;7.83;;;-5.50;99.90;;;;;;4452286;28;658449;-76
2023/04/05 03:38:51;;;;;;;16.43;7.43;;;-5.40;99.90;;;;;;4426649;28;657704;-75
2023/04/05 03:41:38;;;;;;;19.03;7.47;;;-5.40;99.90;;;;;;4455707;28;658690;-74
2023/04/05 03:44:27;;;;;;;17.17;6.53;;;-5.40;99.90;;;;;;4437178;28;657800;-74
2023/04/05 03:47:14;;;;;;;19.90;7.33;;;-5.30;99.90;;;;;;4455696;28;657754;-75
2023/04/05 03:50:02;;;;;;;23.63;8.43;;;-5.30;99.90;;;;;;4411151;28;657943;-74
2023/04/05 03:52:49;;;;;;;20.00;7.37;;;-5.20;99.90;;;;;;4446585;28;657851;-75
2023/04/05 03:55:36;;;;;;;24.47;8.23;;;-5.20;99.90;;;;;;4434236;28;659166;-75
2023/04/05 03:58:25;;;;;;;21.23;8.10;;;-5.10;99.90;;;;;;4458390;28;657765;-75
2023/04/05 04:01:13;;;;;;;24.90;8.77;;;-5.00;99.90;;;;;;4435636;28;657854;-75
2023/04/05 04:04:01;;;;;;;19.07;7.63;;;-5.00;99.90;;;;;;4419923;28;658018;-75
2023/04/05 04:06:48;;;;;;;22.87;8.17;;;-4.90;99.90;;;;;;4461255;28;658287;-75
2023/04/05 04:09:35;;;;;;;18.00;7.87;;;-4.90;99.90;;;;;;4429388;28;657713;-72
2023/04/05 04:12:22;;;;;;;21.93;7.97;;;-4.80;99.90;;;;;;4439764;28;657284;-74
2023/04/05 04:15:10;;;;;;;24.17;7.63;;;-4.80;99.90;;;;;;4440511;28;657294;-75
2023/04/05 04:17:59;;;;;;;21.17;7.80;;;-4.70;99.90;;;;;;4425806;28;658415;-74
2023/04/05 04:20:46;;;;;;;26.20;8.57;;;-4.70;99.90;;;;;;4432150;28;658367;-75
2023/04/05 04:23:37;;;;;;;16.50;7.20;;;-4.60;99.90;;;;;;4447837;28;658248;-75
2023/04/05 04:26:27;;;;;;;22.43;7.20;;;-4.60;99.90;;;;;;4416443;28;658211;-75
2023/04/05 04:29:16;;;;;;;17.77;7.27;;;-4.50;99.90;;;;;;4428217;28;657665;-75
2023/04/05 04:32:05;;;;;;;19.30;7.17;;;-4.50;99.90;;;;;;4435577;28;657844;-75
2023/04/05 04:34:54;;;;;;;19.77;7.53;;;-4.40;99.90;;;;;;4420269;28;658271;-74
2023/04/05 04:37:45;;;;;;;19.03;7.30;;;-4.30;99.90;;;;;;4423437;28;657948;-75
2023/04/05 04:40:37;;;;;;;18.38;7.18;;;-4.20;99.90;;;;;;4421956;28;658490;-75
2023/04/05 04:43:26;;;;;;;18.83;7.83;;;-4.10;99.90;;;;;;4430450;28;657924;-75
2023/04/05 04:46:14;;;;;;;23.80;7.43;;;-4.10;99.90;;;;;;4432242;28;658258;-75
2023/04/05 04:49:04;;;;;;;26.13;7.80;;;-4.00;99.90;;;;;;4430815;28;658148;-75
2023/04/05 04:51:53;;;;;;;20.00;7.43;;;-3.90;99.90;;;;;;4434945;28;658326;-73
2023/04/05 04:54:41;;;;;;;24.33;8.07;;;-3.90;99.90;;;;;;4433781;28;657343;-73
2023/04/05 04:57:29;;;;;;;19.27;8.07;;;-3.70;99.90;;;;;;4456267;28;658560;-74
2023/04/05 05:00:17;;;;;;;22.87;8.17;;;-3.60;99.90;;;;;;4424815;28;658185;-74
2023/04/05 05:03:05;;;;;;;25.10;7.37;;;-3.50;99.90;;;;;;4446954;28;657702;-74
2023/04/05 05:05:52;;;;;;;22.23;7.93;;;-3.40;99.90;;;;;;4426470;28;657926;-75
2023/04/05 05:08:41;;;;;;;16.40;6.47;;;-3.30;99.90;;;;;;4450379;28;657827;-74
2023/04/05 05:11:28;;;;;;;19.90;7.13;;;-3.20;99.90;;;;;;4427363;28;657757;-75
2023/04/05 05:14:15;;;;;;;19.47;8.10;;;-3.10;99.90;;;;;;4442482;28;658475;-73
2023/04/05 05:17:04;;;;;;;23.33;8.87;;;-3.00;99.90;;;;;;4459833;28;657974;-76
2023/04/05 05:19:51;;;;;;;19.43;8.67;;;-2.80;99.90;;;;;;4431223;28;657318;-74
2023/04/05 05:22:38;;;;;;;29.60;8.53;;;-2.70;99.90;;;;;;4463554;28;659462;-75
2023/04/05 05:25:27;;;;;;;23.90;9.30;;;-2.60;99.90;;;;;;4434148;28;657577;-74
2023/04/05 05:28:14;;;;;;;24.87;9.40;;;-2.50;99.90;;;;;;4449894;28;657059;-76
2023/04/05 05:31:01;;;;;;;24.07;8.80;;;-2.40;99.90;;;;;;4440586;28;658280;-76
2023/04/05 05:33:49;;;;;;;28.60;9.13;;;-2.30;99.90;;;;;;4448530;28;658252;-75
2023/04/05 05:36:36;;;;;;;33.72;13.48;;;-2.20;99.90;;;;;;4418884;28;657617;-74
2023/04/05 05:39:24;;;;;;;39.27;15.17;;;-2.10;99.90;;;;;;4449401;28;658814;-76
2023/04/05 05:42:12;;;;;;;27.30;12.83;;;-2.00;99.90;;;;;;4421452;28;659305;-76
2023/04/05 05:45:03;;;;;;;28.07;10.70;;;-1.90;99.90;;;;;;4450035;28;658537;-77
2023/04/05 05:47:50;;;;;;;28.67;11.23;;;-1.80;99.90;;;;;;4414804;28;658790;-74
2023/04/05 05:50:38;;;;;;;33.67;12.67;;;-1.70;99.90;;;;;;4445236;28;659109;-76
2023/04/05 05:53:25;;;;;;;32.60;11.50;;;-1.60;99.90;;;;;;4443774;28;658944;-73
2023/04/05 05:56:12;;;;;;;52.47;20.43;;;-1.50;99.90;;;;;;4446770;28;658347;-75
2023/04/05 05:59:01;;;;;;;65.57;27.40;;;-1.50;99.90;;;;;;4455072;28;658722;-75
2023/04/05 06:01:50;;;;;;;86.70;33.00;;;-1.50;99.90;;;;;;4425333;28;660171;-77
2023/04/05 06:04:37;;;;;;;83.53;33.90;;;-1.50;99.90;;;;;;4419056;28;659463;-76
2023/04/05 06:07:25;;;;;;;80.47;32.37;;;-1.50;99.90;;;;;;4443548;28;658637;-73
2023/04/05 06:10:13;;;;;;;80.93;33.30;;;-1.40;99.90;;;;;;4444371;28;659513;-77
2023/04/05 06:13:01;;;;;;;79.07;33.73;;;-1.30;99.90;;;;;;4436726;28;658591;-74
2023/04/05 06:15:49;;;;;;;75.53;33.17;;;-1.20;99.90;;;;;;4453802;28;659313;-77
2023/04/05 06:18:36;;;;;;;80.70;32.47;;;-1.20;99.90;;;;;;4430965;28;658593;-75
2023/04/05 06:21:24;;;;;;;82.33;33.07;;;-1.30;99.90;;;;;;4435992;28;659722;-76
2023/04/05 06:24:19;;;;;;;87.63;34.77;;;-1.20;99.90;;;;;;4433201;28;659135;-76
2023/04/05 06:27:13;;;;;;;83.67;32.33;;;-1.20;99.90;;;;;;4431668;28;658962;-76
2023/04/05 06:30:00;;;;;;;82.35;30.98;;;-1.00;99.90;;;;;;4425360;28;658856;-74
2023/04/05 06:32:53;;;;;;;89.23;33.60;;;-0.90;99.90;;;;;;4453461;28;660300;-77
2023/04/05 06:35:40;;;;;;;79.70;30.33;;;-0.70;99.90;;;;;;4400619;28;659071;-73
2023/04/05 06:38:27;;;;;;;78.20;29.30;;;-0.40;99.90;;;;;;4451453;27;658821;-74
2023/04/05 06:41:15;;;;;;;76.83;30.57;;;-0.30;99.90;;;;;;4436393;28;659321;-74
2023/04/05 06:44:02;;;;;;;73.30;28.53;;;-0.10;99.90;;;;;;4446145;28;659270;-76
2023/04/05 06:46:49;;;;;;;73.73;28.03;;;-0.10;99.90;;;;;;4451192;28;658695;-75
2023/04/05 06:49:38;;;;;;;78.27;27.63;;;-0.20;99.90;;;;;;4423467;28;659528;-75
2023/04/05 06:52:25;;;;;;;59.43;23.10;;;-0.50;99.90;;;;;;4424062;28;658831;-74
2023/04/05 06:55:12;;;;;;;66.70;25.13;;;-0.40;99.90;;;;;;4445411;28;659985;-76
2023/04/05 06:58:00;;;;;;;70.83;25.20;;;-0.40;99.90;;;;;;4449754;28;659381;-73
2023/04/05 07:00:47;;;;;;;56.43;19.97;;;-0.40;99.90;;;;;;4436646;28;660008;-73
2023/04/05 07:03:35;;;;;;;58.77;24.40;;;-0.40;99.90;;;;;;4445014;28;661555;-76
2023/04/05 07:06:23;;;;;;;71.20;27.23;;;-0.10;99.90;;;;;;4424396;28;659833;-76
2023/04/05 07:09:10;;;;;;;68.20;28.37;;;-0.10;99.90;;;;;;4442560;27;659238;-75
2023/04/05 07:11:58;;;;;;;72.10;29.33;;;-0.10;99.90;;;;;;4439343;28;659823;-74
2023/04/05 07:14:45;;;;;;;74.23;29.50;;;0.00;99.90;;;;;;4430822;28;658597;-75
2023/04/05 07:17:32;;;;;;;80.87;31.17;;;0.20;99.90;;;;;;4450281;28;656992;-76
2023/04/05 07:20:20;;;;;;;45.10;17.67;;;0.50;99.90;;;;;;4454219;28;657763;-76
2023/04/05 07:23:08;;;;;;;65.73;26.30;;;0.20;99.90;;;;;;4434562;28;659012;-76
2023/04/05 07:25:55;;;;;;;69.30;27.40;;;0.60;99.90;;;;;;4419102;28;657595;-76
2023/04/05 07:28:43;;;;;;;68.83;26.90;;;0.60;99.90;;;;;;4437573;28;658509;-75
2023/04/05 07:31:31;;;;;;;65.13;24.35;;;1.20;99.90;;;;;;4445471;27;658059;-74
2023/04/05 07:34:18;;;;;;;67.20;25.70;;;1.50;99.90;;;;;;4452203;28;657852;-75
2023/04/05 07:37:05;;;;;;;67.40;26.47;;;1.30;99.90;;;;;;4417562;28;657467;-74
2023/04/05 07:39:54;;;;;;;53.60;21.67;;;1.40;99.90;;;;;;4443824;28;657326;-76
2023/04/05 07:42:41;;;;;;;62.53;24.13;;;1.10;99.90;;;;;;4431939;28;657785;-75
2023/04/05 07:45:28;;;;;;;46.50;19.37;;;0.90;99.90;;;;;;4458791;28;657738;-76
2023/04/05 07:48:15;;;;;;;66.57;25.43;;;0.80;99.90;;;;;;4435204;28;657812;-75
2023/04/05 07:51:04;;;;;;;56.17;22.67;;;0.90;99.90;;;;;;4455917;28;658629;-75
2023/04/05 07:53:51;;;;;;;64.72;25.27;;;1.00;99.90;;;;;;4429008;28;657610;-76
2023/04/05 07:56:40;;;;;;;61.27;24.37;;;1.20;99.90;;;;;;4456480;28;658434;-76
2023/04/05 07:59:27;;;;;;;60.83;23.77;;;1.50;99.90;;;;;;4432443;28;658198;-77
2023/04/05 08:02:14;;;;;;;49.80;20.83;;;1.60;99.90;;;;;;4459153;28;657190;-77
2023/04/05 08:05:02;;;;;;;60.60;24.27;;;1.20;99.90;;;;;;4423784;28;659031;-77
2023/04/05 08:07:49;;;;;;;47.20;22.30;;;1.70;99.90;;;;;;4461218;28;657499;-78
2023/04/05 08:10:39;;;;;;;55.33;22.27;;;1.60;99.90;;;;;;4420496;28;658972;-78
2023/04/05 08:13:28;;;;;;;37.13;13.97;;;1.50;99.90;;;;;;4424303;28;657821;-76
2023/04/05 08:16:15;;;;;;;37.33;15.53;;;1.50;99.90;;;;;;4435741;28;657918;-73
2023/04/05 08:19:02;;;;;;;38.77;15.63;;;1.10;99.90;;;;;;4444373;28;658376;-78
2023/04/05 08:21:50;;;;;;;42.73;18.13;;;0.90;99.90;;;;;;4445328;28;657889;-73
2023/04/05 08:24:37;;;;;;;41.17;17.90;;;0.80;99.90;;;;;;4460634;28;658166;-76
2023/04/05 08:27:25;;;;;;;45.47;18.70;;;0.60;99.90;;;;;;4455800;28;657411;-77
2023/04/05 08:30:15;;;;;;;30.70;13.27;;;0.70;99.90;;;;;;4463946;28;658500;-76
2023/04/05 08:33:02;;;;;;;32.63;14.03;;;0.90;99.90;;;;;;4431100;28;658363;-77
2023/04/05 08:35:49;;;;;;;34.50;15.27;;;1.20;99.90;;;;;;4435977;28;659275;-76
2023/04/05 08:38:37;;;;;;;47.47;17.87;;;1.20;99.90;;;;;;4421010;28;659285;-74
2023/04/05 08:41:25;;;;;;;41.77;18.73;;;1.60;99.90;;;;;;4451342;28;657539;-76
2023/04/05 08:44:12;;;;;;;44.33;18.33;;;1.80;99.90;;;;;;4430537;27;659207;-76
2023/04/05 08:47:01;;;;;;;50.90;20.38;;;2.30;99.90;;;;;;4462426;28;658127;-75
2023/04/05 08:49:48;;;;;;;41.33;18.90;;;3.10;99.90;;;;;;4436045;28;658563;-76
2023/04/05 08:52:36;;;;;;;39.93;17.53;;;3.90;99.90;;;;;;4439439;28;658139;-73
2023/04/05 08:55:24;;;;;;;40.30;16.93;;;4.70;99.90;;;;;;4446743;28;658198;-75
2023/04/05 08:58:14;;;;;;;38.70;17.20;;;4.70;99.50;;;;;;4426452;28;657781;-75
2023/04/05 09:01:01;;;;;;;42.87;18.10;;;4.50;99.90;;;;;;4439603;27;657585;-77
2023/04/05 09:03:50;;;;;;;42.67;18.13;;;4.30;99.90;;;;;;4463062;28;658550;-76
2023/04/05 09:06:37;;;;;;;38.50;17.67;;;4.30;96.30;;;;;;4417698;28;658986;-77
2023/04/05 09:09:24;;;;;;;37.63;18.20;;;3.10;98.70;;;;;;4446410;28;657449;-77
2023/04/05 09:12:11;;;;;;;31.85;14.82;;;3.00;99.20;;;;;;4431969;28;658626;-75
2023/04/05 09:14:59;;;;;;;28.30;14.03;;;2.80;97.50;;;;;;4453684;28;658499;-76
2023/04/05 09:17:46;;;;;;;21.40;10.17;;;2.90;97.50;;;;;;4426453;28;658484;-75
2023/04/05 09:20:35;;;;;;;22.50;10.47;;;3.10;94.80;;;;;;4454581;28;658634;-77
2023/04/05 09:23:22;;;;;;;23.40;9.53;;;3.10;95.80;;;;;;4424016;28;658453;-78
2023/04/05 09:26:20;;;;;;;24.50;10.30;;;3.30;94.50;;;;;;4453932;28;656500;-77
2023/04/05 09:29:07;;;;;;;23.03;9.37;;;3.50;94.60;;;;;;4391575;28;657738;-76
2023/04/05 09:31:54;;;;;;;21.77;10.33;;;3.90;94.20;;;;;;4439943;28;656223;-75
2023/04/05 09:34:42;;;;;;;22.98;9.68;;;4.50;96.40;;;;;;4434507;28;657748;-75
2023/04/05 09:37:30;;;;;;;19.87;7.93;;;5.40;93.40;;;;;;4463323;28;656356;-75
2023/04/05 09:40:18;;;;;;;19.80;7.50;;;6.10;92.80;;;;;;4415561;28;657491;-78
2023/04/05 09:43:05;;;;;;;25.75;12.68;;;6.40;74.20;;;;;;4442487;28;656740;-74
2023/04/05 09:45:52;;;;;;;31.23;14.40;;;5.20;73.30;;;;;;4454984;28;657574;-77
2023/04/05 09:48:46;;;;;;;31.60;13.87;;;4.90;75.40;;;;;;4453353;28;658884;-75
2023/04/05 09:51:34;;;;;;;31.67;14.33;;;5.40;75.90;;;;;;4428899;28;658604;-75
2023/04/05 09:54:22;;;;;;;28.50;12.73;;;5.10;80.80;;;;;;4433591;28;658106;-75
2023/04/05 09:57:10;;;;;;;26.20;11.37;;;5.00;76.50;;;;;;4451937;28;657908;-75
2023/04/05 09:59:57;;;;;;;27.80;11.83;;;4.10;67.70;;;;;;4413955;28;659219;-74
2023/04/05 10:02:46;;;;;;;29.97;11.87;;;4.40;69.90;;;;;;4449647;28;657576;-77
2023/04/05 10:05:33;;;;;;;28.97;12.03;;;3.90;71.70;;;;;;4433417;28;658127;-76
2023/04/05 10:08:20;;;;;;;26.60;12.33;;;3.80;76.80;;;;;;4437813;28;657635;-74
2023/04/05 10:11:09;;;;;;;30.03;12.57;;;4.00;78.50;;;;;;4456887;28;658953;-77
2023/04/05 10:13:56;;;;;;;32.30;12.97;;;4.00;73.60;;;;;;4437253;28;657503;-77
2023/04/05 10:16:47;;;;;;;28.20;11.47;;;4.20;75.40;;;;;;4447318;28;658031;-76
2023/04/05 10:19:44;;;;;;;28.57;12.73;;;4.40;74.50;;;;;;4426394;28;657146;-76
2023/04/05 10:22:36;;;;;;;30.83;12.60;;;5.20;75.00;;;;;;4431561;28;657821;-76
2023/04/05 10:25:26;;;;;;;23.83;11.50;;;5.80;75.30;;;;;;4421318;28;657577;-77
2023/04/05 10:28:17;;;;;;;40.37;16.17;;;6.40;76.20;;;;;;4439259;28;657884;-76
2023/04/05 10:31:10;;;;;;;30.07;12.83;;;7.10;69.00;;;;;;4428490;28;657401;-77
2023/04/05 10:34:01;;;;;;;24.97;10.47;;;6.90;69.30;;;;;;4430951;28;658668;-77
2023/04/05 10:36:50;;;;;;;24.37;10.40;;;7.40;67.80;;;;;;4435294;28;658366;-78
2023/04/05 10:39:40;;;;;;;21.13;9.57;;;7.80;69.70;;;;;;4424695;28;658471;-77
2023/04/05 10:42:28;;;;;;;17.77;9.10;;;8.00;64.90;;;;;;4432890;28;656709;-79
2023/04/05 10:45:18;;;;;;;18.40;8.43;;;7.70;56.20;;;;;;4417975;28;657201;-75
2023/04/05 10:48:11;;;;;;;17.17;8.27;;;6.50;55.30;;;;;;4436008;28;656677;-75
2023/04/05 10:50:58;;;;;;;20.63;8.07;;;6.90;62.10;;;;;;4423840;28;657548;-77
2023/04/05 10:53:45;;;;;;;16.98;7.82;;;7.70;60.00;;;;;;4430963;28;656811;-74
2023/04/05 10:56:32;;;;;;;22.17;9.67;;;7.50;54.30;;;;;;4460714;28;658317;-77
2023/04/05 10:59:20;;;;;;;21.20;10.33;;;7.60;52.20;;;;;;4456414;28;656169;-74
2023/04/05 11:02:09;;;;;;;14.90;7.27;;;7.80;53.00;;;;;;4442766;28;658744;-74
2023/04/05 11:04:56;;;;;;;19.03;7.90;;;8.30;50.20;;;;;;4433936;28;657220;-77
2023/04/05 11:07:44;;;;;;;22.93;9.27;;;7.00;48.90;;;;;;4438394;28;656105;-77
2023/04/05 11:10:32;;;;;;;21.27;9.82;;;5.40;54.80;;;;;;4436804;27;656407;-76
2023/04/05 11:13:19;;;;;;;18.67;8.73;;;4.80;59.40;;;;;;4446289;28;656457;-75
2023/04/05 11:16:08;;;;;;;19.97;7.90;;;4.20;59.80;;;;;;4436312;28;656951;-78
2023/04/05 11:18:57;;;;;;;21.37;9.00;;;4.40;62.00;;;;;;4425595;28;656809;-73
2023/04/05 11:21:45;;;;;;;21.67;8.93;;;4.10;60.80;;;;;;4435071;28;656431;-74
2023/04/05 11:24:50;;;;;;;19.10;8.97;;;4.00;63.80;;;;;;4457546;28;657291;-77
2023/04/05 11:27:39;;;;;;;19.37;8.73;;;4.60;63.00;;;;;;4410284;28;657198;-76
2023/04/05 11:30:50;;;;;;;15.73;8.03;;;5.40;64.60;;;;;;4426350;28;657750;-75
2023/04/05 11:33:38;;;;;;;19.80;10.10;;;6.10;62.90;;;;;;4402348;28;656960;-76
2023/04/05 11:36:40;;;;;;;16.40;7.73;;;6.60;61.80;;;;;;4432011;28;658221;-74
2023/04/05 11:39:28;;;;;;;20.33;9.97;;;6.90;57.10;;;;;;4396360;28;656879;-76
2023/04/05 11:42:17;;;;;;;16.03;7.83;;;7.50;56.60;;;;;;4427525;28;656795;-73
2023/04/05 11:45:05;;;;;;;17.02;7.78;;;7.40;55.50;;;;;;4448784;28;656432;-75
2023/04/05 11:47:52;;;;;;;20.17;11.37;;;7.50;57.20;;;;;;4418604;28;656987;-73
2023/04/05 11:50:41;;;;;;;17.17;8.13;;;7.40;55.10;;;;;;4440358;28;658707;-75
2023/04/05 11:53:30;;;;;;;18.87;8.20;;;7.10;51.70;;;;;;4441221;28;656772;-75
2023/04/05 11:56:18;;;;;;;22.87;8.70;;;6.80;50.40;;;;;;4434685;28;657428;-76
2023/04/05 11:59:06;;;;;;;16.43;8.50;;;6.40;50.90;;;;;;4427974;28;657110;-74
2023/04/05 12:01:58;;;;;;;17.97;8.10;;;6.90;53.90;;;;;;4447497;28;657530;-75
2023/04/05 12:04:48;;;;;;;19.23;8.20;;;6.90;52.30;;;;;;4415370;28;656603;-74
2023/04/05 12:07:35;;;;;;;18.80;7.80;;;6.90;53.20;;;;;;4441777;28;657083;-74
2023/04/05 12:10:24;;;;;;;11.20;6.87;;;6.30;53.00;;;;;;4459138;28;656953;-76
2023/04/05 12:13:11;;;;;;;14.30;7.00;;;6.40;53.80;;;;;;4424304;28;656455;-76
2023/04/05 12:15:59;;;;;;;21.07;8.77;;;6.60;50.00;;;;;;4452197;28;656146;-76
2023/04/05 12:18:46;;;;;;;20.53;9.63;;;6.60;52.00;;;;;;4435744;28;656613;-75
2023/04/05 12:21:33;;;;;;;16.10;7.77;;;7.20;53.90;;;;;;4452241;28;657342;-75
2023/04/05 12:24:20;;;;;;;12.63;6.90;;;8.10;55.30;;;;;;4439322;28;657525;-75
2023/04/05 12:27:09;;;;;;;34.17;13.17;;;8.60;51.20;;;;;;4446267;28;656843;-75
2023/04/05 12:30:08;;;;;;;71.03;28.60;;;8.60;48.40;;;;;;4427076;28;657229;-75
2023/04/05 12:32:56;;;;;;;16.85;8.13;;;8.30;47.50;;;;;;4393441;28;658918;-75
2023/04/05 12:35:43;;;;;;;14.80;7.90;;;7.90;46.10;;;;;;4446964;28;657171;-76
2023/04/05 12:38:30;;;;;;;14.77;6.77;;;7.70;48.80;;;;;;4439571;28;657090;-73
2023/04/05 12:41:17;;;;;;;44.77;15.93;;;7.70;50.10;;;;;;4452483;28;657577;-75
2023/04/05 12:44:11;;;;;;;28.13;11.30;;;7.60;50.00;;;;;;4447493;28;657307;-74
2023/04/05 12:47:00;;;;;;;13.90;7.37;;;7.70;51.60;;;;;;4427747;28;658143;-75
2023/04/05 12:49:47;;;;;;;14.57;6.57;;;7.70;50.60;;;;;;4421726;28;657452;-75
2023/04/05 12:52:34;;;;;;;13.50;6.50;;;8.30;52.40;;;;;;4444355;28;656828;-75
2023/04/05 12:55:22;;;;;;;18.10;7.47;;;9.40;52.30;;;;;;4431383;28;656877;-76
2023/04/05 12:58:09;;;;;;;12.40;6.83;;;10.20;47.70;;;;;;4449538;28;656826;-75
2023/04/05 13:00:58;;;;;;;13.10;5.90;;;10.30;47.40;;;;;;4426926;28;657604;-74
2023/04/05 13:03:45;;;;;;;17.30;7.90;;;10.70;47.60;;;;;;4430171;28;659357;-74
2023/04/05 13:06:32;;;;;;;12.33;5.60;;;10.70;43.70;;;;;;4451306;28;658839;-74
2023/04/05 13:09:20;;;;;;;14.43;6.03;;;9.30;41.40;;;;;;4444024;28;657802;-74
2023/04/05 13:12:07;;;;;;;26.90;11.97;;;9.30;44.30;;;;;;4459445;28;657332;-74
2023/04/05 13:14:54;;;;;;;22.83;10.70;;;9.60;46.00;;;;;;4445318;28;657999;-75
2023/04/05 13:17:44;;;;;;;31.43;13.43;;;9.70;44.30;;;;;;4437097;28;658669;-74
2023/04/05 13:20:31;;;;;;;14.13;6.93;;;9.40;43.00;;;;;;4425082;28;657491;-73
2023/04/05 13:23:18;;;;;;;13.00;6.97;;;9.10;43.70;;;;;;4456142;28;657035;-76
2023/04/05 13:26:05;;;;;;;12.35;6.22;;;8.50;44.10;;;;;;4434570;28;656797;-74
2023/04/05 13:28:53;;;;;;;17.30;8.00;;;8.60;44.20;;;;;;4464109;28;657352;-73
2023/04/05 13:31:40;;;;;;;12.33;5.93;;;8.30;43.50;;;;;;4442927;28;656248;-73
2023/04/05 13:34:30;;;;;;;11.07;5.47;;;7.70;44.70;;;;;;4446646;28;657727;-75
2023/04/05 13:37:17;;;;;;;9.77;5.07;;;6.70;45.30;;;;;;4433150;28;657887;-75
2023/04/05 13:40:05;;;;;;;10.38;5.05;;;6.80;46.10;;;;;;4451832;28;656075;-77
2023/04/05 13:42:52;;;;;;;11.13;5.33;;;6.90;43.90;;;;;;4422875;28;657400;-74
2023/04/05 13:45:40;;;;;;;10.93;6.00;;;7.00;46.50;;;;;;4453540;28;657085;-73
2023/04/05 13:48:27;;;;;;;15.00;7.03;;;7.30;49.20;;;;;;4443632;28;658188;-76
2023/04/05 13:51:16;;;;;;;11.43;5.40;;;8.20;48.50;;;;;;4454416;28;656100;-75
2023/04/05 13:54:04;;;;;;;12.17;5.57;;;9.00;46.00;;;;;;4456144;28;656697;-75
2023/04/05 13:56:51;;;;;;;16.23;7.67;;;9.70;47.70;;;;;;4437809;28;656971;-79
2023/04/05 13:59:38;;;;;;;21.33;9.10;;;10.40;46.30;;;;;;4452109;28;656982;-74
2023/04/05 14:02:26;;;;;;;17.33;5.97;;;9.90;43.20;;;;;;4422226;28;657444;-76
2023/04/05 14:05:14;;;;;;;14.93;7.03;;;9.70;43.80;;;;;;4455372;28;656668;-76
2023/04/05 14:08:02;;;;;;;13.20;6.80;;;9.40;44.20;;;;;;4439866;28;656382;-75
2023/04/05 14:10:50;;;;;;;16.30;7.23;;;9.00;44.10;;;;;;4448133;28;656770;-73
2023/04/05 14:13:37;;;;;;;14.70;7.93;;;8.90;46.00;;;;;;4462214;28;656361;-75
2023/04/05 14:16:25;;;;;;;19.93;9.30;;;8.70;46.30;;;;;;4444212;28;657080;-75